sensor_id;sensor_type;location;lat;lon;timestamp;P1;durP1;ratioP1;P2;durP2;ratioP2
23754;SDS011;12057;52.042;6.830;2023-04-03T00:02:55;16.23;;;1.97;;
23754;SDS011;12057;52.042;6.830;2023-04-03T00:07:56;5.80;;;1.73;;
23754;SDS011;12057;52.042;6.830;2023-04-03T00:12:57;9.30;;;1.88;;
23754;SDS011;12057;52.042;6.830;2023-04-03T00:17:57;7.07;;;2.75;;
23754;SDS011;12057;52.042;6.830;2023-04-03T00:22:58;3.10;;;1.45;;
23754;SDS011;12057;52.042;6.830;2023-04-03T00:28:00;8.70;;;2.00;;
23754;SDS011;12057;52.042;6.830;2023-04-03T00:33:01;12.27;;;2.15;;
23754;SDS011;12057;52.042;6.830;2023-04-03T00:38:02;9.77;;;1.70;;
23754;SDS011;12057;52.042;6.830;2023-04-03T00:43:05;8.05;;;2.15;;
23754;SDS011;12057;52.042;6.830;2023-04-03T00:48:21;14.10;;;2.40;;
23754;SDS011;12057;52.042;6.830;2023-04-03T00:53:36;4.95;;;1.98;;
23754;SDS011;12057;52.042;6.830;2023-04-03T00:59:33;7.53;;;1.92;;
23754;SDS011;12057;52.042;6.830;2023-04-03T01:09:31;11.05;;;1.42;;
23754;SDS011;12057;52.042;6.830;2023-04-03T01:14:32;7.95;;;1.75;;
23754;SDS011;12057;52.042;6.830;2023-04-03T01:19:33;10.50;;;1.63;;
23754;SDS011;12057;52.042;6.830;2023-04-03T01:24:39;6.28;;;1.90;;
23754;SDS011;12057;52.042;6.830;2023-04-03T01:34:43;15.00;;;1.98;;
23754;SDS011;12057;52.042;6.830;2023-04-03T01:39:44;14.95;;;2.33;;
23754;SDS011;12057;52.042;6.830;2023-04-03T01:44:45;16.27;;;2.20;;
23754;SDS011;12057;52.042;6.830;2023-04-03T01:49:46;11.07;;;3.03;;
23754;SDS011;12057;52.042;6.830;2023-04-03T01:54:46;8.68;;;2.83;;
23754;SDS011;12057;52.042;6.830;2023-04-03T01:59:47;6.18;;;2.10;;
23754;SDS011;12057;52.042;6.830;2023-04-03T02:04:48;9.75;;;2.08;;
23754;SDS011;12057;52.042;6.830;2023-04-03T02:09:49;12.02;;;2.15;;
23754;SDS011;12057;52.042;6.830;2023-04-03T02:14:50;5.93;;;1.98;;
23754;SDS011;12057;52.042;6.830;2023-04-03T02:19:50;16.05;;;2.10;;
23754;SDS011;12057;52.042;6.830;2023-04-03T02:24:51;8.88;;;1.90;;
23754;SDS011;12057;52.042;6.830;2023-04-03T02:29:52;10.32;;;1.67;;
23754;SDS011;12057;52.042;6.830;2023-04-03T02:34:53;9.23;;;2.35;;
23754;SDS011;12057;52.042;6.830;2023-04-03T02:39:53;9.90;;;2.03;;
23754;SDS011;12057;52.042;6.830;2023-04-03T02:44:55;9.68;;;1.92;;
23754;SDS011;12057;52.042;6.830;2023-04-03T02:49:56;8.88;;;2.28;;
23754;SDS011;12057;52.042;6.830;2023-04-03T02:54:56;10.48;;;1.85;;
23754;SDS011;12057;52.042;6.830;2023-04-03T02:59:57;9.73;;;1.92;;
23754;SDS011;12057;52.042;6.830;2023-04-03T03:04:58;10.30;;;2.08;;
23754;SDS011;12057;52.042;6.830;2023-04-03T03:09:58;8.40;;;1.92;;
23754;SDS011;12057;52.042;6.830;2023-04-03T03:14:59;5.18;;;1.85;;
23754;SDS011;12057;52.042;6.830;2023-04-03T03:20:00;10.55;;;1.85;;
23754;SDS011;12057;52.042;6.830;2023-04-03T03:25:01;16.02;;;2.97;;
23754;SDS011;12057;52.042;6.830;2023-04-03T03:30:04;6.60;;;1.60;;
23754;SDS011;12057;52.042;6.830;2023-04-03T03:35:05;13.35;;;3.88;;
23754;SDS011;12057;52.042;6.830;2023-04-03T03:40:06;17.58;;;2.30;;
23754;SDS011;12057;52.042;6.830;2023-04-03T03:45:08;8.40;;;2.35;;
23754;SDS011;12057;52.042;6.830;2023-04-03T03:50:09;9.40;;;2.15;;
23754;SDS011;12057;52.042;6.830;2023-04-03T03:55:10;6.40;;;1.92;;
23754;SDS011;12057;52.042;6.830;2023-04-03T04:00:11;18.15;;;2.42;;
23754;SDS011;12057;52.042;6.830;2023-04-03T04:10:13;8.07;;;1.80;;
23754;SDS011;12057;52.042;6.830;2023-04-03T04:15:14;12.23;;;2.63;;
23754;SDS011;12057;52.042;6.830;2023-04-03T04:20:15;8.10;;;1.23;;
23754;SDS011;12057;52.042;6.830;2023-04-03T04:25:15;8.30;;;2.08;;
23754;SDS011;12057;52.042;6.830;2023-04-03T04:30:16;10.57;;;2.53;;
23754;SDS011;12057;52.042;6.830;2023-04-03T04:35:17;18.38;;;2.40;;
23754;SDS011;12057;52.042;6.830;2023-04-03T04:40:18;14.63;;;2.85;;
23754;SDS011;12057;52.042;6.830;2023-04-03T04:45:19;7.70;;;2.20;;
23754;SDS011;12057;52.042;6.830;2023-04-03T04:50:19;12.20;;;2.10;;
23754;SDS011;12057;52.042;6.830;2023-04-03T04:55:20;9.48;;;2.15;;
23754;SDS011;12057;52.042;6.830;2023-04-03T05:00:21;5.78;;;2.20;;
23754;SDS011;12057;52.042;6.830;2023-04-03T05:05:22;8.32;;;2.47;;
23754;SDS011;12057;52.042;6.830;2023-04-03T05:10:23;16.88;;;3.00;;
23754;SDS011;12057;52.042;6.830;2023-04-03T05:15:24;14.13;;;1.83;;
23754;SDS011;12057;52.042;6.830;2023-04-03T05:20:24;17.83;;;3.00;;
23754;SDS011;12057;52.042;6.830;2023-04-03T05:25:25;24.58;;;3.47;;
23754;SDS011;12057;52.042;6.830;2023-04-03T05:35:27;16.07;;;2.47;;
23754;SDS011;12057;52.042;6.830;2023-04-03T05:40:28;10.57;;;2.33;;
23754;SDS011;12057;52.042;6.830;2023-04-03T05:45:29;11.13;;;2.60;;
23754;SDS011;12057;52.042;6.830;2023-04-03T05:50:30;7.28;;;2.30;;
23754;SDS011;12057;52.042;6.830;2023-04-03T05:55:31;7.88;;;2.47;;
23754;SDS011;12057;52.042;6.830;2023-04-03T06:00:32;6.50;;;2.28;;
23754;SDS011;12057;52.042;6.830;2023-04-03T06:05:32;10.90;;;2.42;;
23754;SDS011;12057;52.042;6.830;2023-04-03T06:10:33;12.02;;;2.15;;
23754;SDS011;12057;52.042;6.830;2023-04-03T06:20:35;4.90;;;1.63;;
23754;SDS011;12057;52.042;6.830;2023-04-03T06:25:36;14.02;;;2.25;;
23754;SDS011;12057;52.042;6.830;2023-04-03T06:30:36;11.98;;;2.42;;
23754;SDS011;12057;52.042;6.830;2023-04-03T06:35:37;4.72;;;1.60;;
23754;SDS011;12057;52.042;6.830;2023-04-03T06:40:38;6.80;;;2.25;;
23754;SDS011;12057;52.042;6.830;2023-04-03T06:45:39;17.13;;;2.78;;
23754;SDS011;12057;52.042;6.830;2023-04-03T06:55:41;3.57;;;1.10;;
23754;SDS011;12057;52.042;6.830;2023-04-03T07:00:41;10.05;;;2.72;;
23754;SDS011;12057;52.042;6.830;2023-04-03T07:05:43;12.93;;;1.98;;
23754;SDS011;12057;52.042;6.830;2023-04-03T07:10:44;10.93;;;2.30;;
23754;SDS011;12057;52.042;6.830;2023-04-03T07:15:45;12.38;;;2.60;;
23754;SDS011;12057;52.042;6.830;2023-04-03T07:20:46;5.65;;;1.98;;
23754;SDS011;12057;52.042;6.830;2023-04-03T07:25:48;7.65;;;2.03;;
23754;SDS011;12057;52.042;6.830;2023-04-03T07:30:51;6.45;;;1.45;;
23754;SDS011;12057;52.042;6.830;2023-04-03T07:35:53;9.00;;;2.13;;
23754;SDS011;12057;52.042;6.830;2023-04-03T07:40:54;3.28;;;1.42;;
23754;SDS011;12057;52.042;6.830;2023-04-03T07:45:55;7.97;;;1.30;;
23754;SDS011;12057;52.042;6.830;2023-04-03T07:50:59;4.68;;;0.90;;
23754;SDS011;12057;52.042;6.830;2023-04-03T07:56:00;12.88;;;1.50;;
23754;SDS011;12057;52.042;6.830;2023-04-03T08:01:02;8.63;;;1.95;;
23754;SDS011;12057;52.042;6.830;2023-04-03T08:06:04;8.95;;;1.35;;
23754;SDS011;12057;52.042;6.830;2023-04-03T08:11:07;4.57;;;1.38;;
23754;SDS011;12057;52.042;6.830;2023-04-03T08:16:12;6.60;;;2.22;;
23754;SDS011;12057;52.042;6.830;2023-04-03T08:21:16;7.45;;;1.35;;
23754;SDS011;12057;52.042;6.830;2023-04-03T08:26:18;5.97;;;1.37;;
23754;SDS011;12057;52.042;6.830;2023-04-03T08:31:21;3.72;;;0.88;;
23754;SDS011;12057;52.042;6.830;2023-04-03T08:36:23;3.37;;;1.00;;
23754;SDS011;12057;52.042;6.830;2023-04-03T08:41:36;1.92;;;0.95;;
23754;SDS011;12057;52.042;6.830;2023-04-03T08:51:51;4.30;;;0.82;;
23754;SDS011;12057;52.042;6.830;2023-04-03T08:56:52;2.33;;;0.93;;
23754;SDS011;12057;52.042;6.830;2023-04-03T09:01:53;5.72;;;0.82;;
23754;SDS011;12057;52.042;6.830;2023-04-03T09:06:57;2.45;;;0.82;;
23754;SDS011;12057;52.042;6.830;2023-04-03T09:22:32;4.72;;;0.90;;
23754;SDS011;12057;52.042;6.830;2023-04-03T09:27:37;1.67;;;0.70;;
23754;SDS011;12057;52.042;6.830;2023-04-03T09:32:38;1.87;;;0.93;;
23754;SDS011;12057;52.042;6.830;2023-04-03T09:37:43;3.33;;;0.90;;
23754;SDS011;12057;52.042;6.830;2023-04-03T09:42:46;2.70;;;1.08;;
23754;SDS011;12057;52.042;6.830;2023-04-03T09:47:48;27.25;;;1.40;;
23754;SDS011;12057;52.042;6.830;2023-04-03T09:52:49;2.00;;;0.60;;
23754;SDS011;12057;52.042;6.830;2023-04-03T09:57:55;2.83;;;0.80;;
23754;SDS011;12057;52.042;6.830;2023-04-03T10:02:58;1.42;;;0.50;;
23754;SDS011;12057;52.042;6.830;2023-04-03T10:13:16;3.20;;;0.90;;
23754;SDS011;12057;52.042;6.830;2023-04-03T10:23:57;3.63;;;0.85;;
23754;SDS011;12057;52.042;6.830;2023-04-03T10:34:37;6.13;;;0.75;;
23754;SDS011;12057;52.042;6.830;2023-04-03T11:01:31;4.95;;;1.17;;
23754;SDS011;12057;52.042;6.830;2023-04-03T11:06:36;9.38;;;1.10;;
23754;SDS011;12057;52.042;6.830;2023-04-03T11:11:41;9.00;;;1.10;;
23754;SDS011;12057;52.042;6.830;2023-04-03T11:16:45;7.10;;;0.70;;
23754;SDS011;12057;52.042;6.830;2023-04-03T11:22:00;6.15;;;0.82;;
23754;SDS011;12057;52.042;6.830;2023-04-03T11:27:16;2.95;;;0.90;;
23754;SDS011;12057;52.042;6.830;2023-04-03T11:37:46;4.30;;;1.08;;
23754;SDS011;12057;52.042;6.830;2023-04-03T11:48:42;7.97;;;1.33;;
23754;SDS011;12057;52.042;6.830;2023-04-03T11:53:48;1.65;;;0.80;;
23754;SDS011;12057;52.042;6.830;2023-04-03T12:04:12;6.72;;;1.17;;
23754;SDS011;12057;52.042;6.830;2023-04-03T12:14:27;1.98;;;0.85;;
23754;SDS011;12057;52.042;6.830;2023-04-03T12:19:33;3.05;;;1.10;;
23754;SDS011;12057;52.042;6.830;2023-04-03T12:24:44;6.80;;;1.10;;
23754;SDS011;12057;52.042;6.830;2023-04-03T12:51:02;8.80;;;1.42;;
23754;SDS011;12057;52.042;6.830;2023-04-03T13:01:25;5.90;;;1.77;;
23754;SDS011;12057;52.042;6.830;2023-04-03T13:06:47;6.03;;;1.30;;
23754;SDS011;12057;52.042;6.830;2023-04-03T13:11:48;2.92;;;0.80;;
23754;SDS011;12057;52.042;6.830;2023-04-03T13:16:55;7.25;;;0.88;;
23754;SDS011;12057;52.042;6.830;2023-04-03T13:22:34;4.95;;;1.23;;
23754;SDS011;12057;52.042;6.830;2023-04-03T13:27:43;5.18;;;1.20;;
23754;SDS011;12057;52.042;6.830;2023-04-03T13:32:44;5.47;;;1.30;;
23754;SDS011;12057;52.042;6.830;2023-04-03T13:37:55;5.03;;;1.07;;
23754;SDS011;12057;52.042;6.830;2023-04-03T13:43:16;4.30;;;1.50;;
23754;SDS011;12057;52.042;6.830;2023-04-03T13:48:20;4.30;;;1.05;;
23754;SDS011;12057;52.042;6.830;2023-04-03T13:53:22;5.72;;;1.70;;
23754;SDS011;12057;52.042;6.830;2023-04-03T13:58:28;4.37;;;1.30;;
23754;SDS011;12057;52.042;6.830;2023-04-03T14:03:32;11.18;;;1.98;;
23754;SDS011;12057;52.042;6.830;2023-04-03T14:08:45;11.73;;;2.38;;
23754;SDS011;12057;52.042;6.830;2023-04-03T14:13:47;13.02;;;1.75;;
23754;SDS011;12057;52.042;6.830;2023-04-03T14:23:50;7.55;;;1.55;;
23754;SDS011;12057;52.042;6.830;2023-04-03T14:28:53;3.17;;;1.13;;
23754;SDS011;12057;52.042;6.830;2023-04-03T14:33:55;3.72;;;1.50;;
23754;SDS011;12057;52.042;6.830;2023-04-03T14:38:56;4.97;;;2.10;;
23754;SDS011;12057;52.042;6.830;2023-04-03T14:43:58;5.22;;;1.30;;
23754;SDS011;12057;52.042;6.830;2023-04-03T14:48:59;6.83;;;1.57;;
23754;SDS011;12057;52.042;6.830;2023-04-03T14:54:00;7.57;;;1.60;;
23754;SDS011;12057;52.042;6.830;2023-04-03T14:59:01;5.93;;;1.50;;
23754;SDS011;12057;52.042;6.830;2023-04-03T15:04:04;9.50;;;1.42;;
23754;SDS011;12057;52.042;6.830;2023-04-03T15:09:26;14.10;;;1.23;;
23754;SDS011;12057;52.042;6.830;2023-04-03T15:14:27;4.55;;;1.25;;
23754;SDS011;12057;52.042;6.830;2023-04-03T15:19:29;14.47;;;4.50;;
23754;SDS011;12057;52.042;6.830;2023-04-03T15:24:34;8.68;;;1.50;;
23754;SDS011;12057;52.042;6.830;2023-04-03T15:29:36;5.53;;;1.43;;
23754;SDS011;12057;52.042;6.830;2023-04-03T15:34:38;3.85;;;1.40;;
23754;SDS011;12057;52.042;6.830;2023-04-03T15:39:39;5.82;;;1.55;;
23754;SDS011;12057;52.042;6.830;2023-04-03T15:44:40;9.50;;;1.63;;
23754;SDS011;12057;52.042;6.830;2023-04-03T15:49:41;4.07;;;1.33;;
23754;SDS011;12057;52.042;6.830;2023-04-03T15:54:42;7.15;;;1.20;;
23754;SDS011;12057;52.042;6.830;2023-04-03T15:59:43;8.73;;;1.30;;
23754;SDS011;12057;52.042;6.830;2023-04-03T16:04:50;5.55;;;1.13;;
23754;SDS011;12057;52.042;6.830;2023-04-03T16:15:15;4.85;;;1.17;;
23754;SDS011;12057;52.042;6.830;2023-04-03T16:20:18;6.70;;;1.10;;
23754;SDS011;12057;52.042;6.830;2023-04-03T16:25:25;4.72;;;1.25;;
23754;SDS011;12057;52.042;6.830;2023-04-03T16:30:33;7.15;;;1.42;;
23754;SDS011;12057;52.042;6.830;2023-04-03T16:40:58;6.03;;;1.23;;
23754;SDS011;12057;52.042;6.830;2023-04-03T16:46:11;3.10;;;1.13;;
23754;SDS011;12057;52.042;6.830;2023-04-03T16:51:16;7.45;;;1.42;;
23754;SDS011;12057;52.042;6.830;2023-04-03T16:56:34;6.15;;;1.08;;
23754;SDS011;12057;52.042;6.830;2023-04-03T17:01:38;4.82;;;1.30;;
23754;SDS011;12057;52.042;6.830;2023-04-03T17:06:45;4.18;;;1.38;;
23754;SDS011;12057;52.042;6.830;2023-04-03T17:11:53;4.15;;;0.93;;
23754;SDS011;12057;52.042;6.830;2023-04-03T17:17:15;2.80;;;1.10;;
23754;SDS011;12057;52.042;6.830;2023-04-03T17:22:31;7.97;;;1.70;;
23754;SDS011;12057;52.042;6.830;2023-04-03T17:27:51;5.18;;;1.10;;
23754;SDS011;12057;52.042;6.830;2023-04-03T17:32:53;5.05;;;1.30;;
23754;SDS011;12057;52.042;6.830;2023-04-03T17:38:03;3.78;;;1.40;;
23754;SDS011;12057;52.042;6.830;2023-04-03T17:48:29;5.03;;;1.50;;
23754;SDS011;12057;52.042;6.830;2023-04-03T18:05:03;4.72;;;1.33;;
23754;SDS011;12057;52.042;6.830;2023-04-03T18:10:05;4.80;;;1.52;;
23754;SDS011;12057;52.042;6.830;2023-04-03T18:15:08;4.97;;;2.15;;
23754;SDS011;12057;52.042;6.830;2023-04-03T18:20:10;6.65;;;1.27;;
23754;SDS011;12057;52.042;6.830;2023-04-03T18:25:13;9.20;;;2.45;;
23754;SDS011;12057;52.042;6.830;2023-04-03T18:30:16;11.75;;;4.13;;
23754;SDS011;12057;52.042;6.830;2023-04-03T18:35:17;9.95;;;3.10;;
23754;SDS011;12057;52.042;6.830;2023-04-03T18:40:18;10.00;;;1.60;;
23754;SDS011;12057;52.042;6.830;2023-04-03T18:45:20;8.93;;;2.73;;
23754;SDS011;12057;52.042;6.830;2023-04-03T18:50:22;16.48;;;4.45;;
23754;SDS011;12057;52.042;6.830;2023-04-03T18:55:23;11.07;;;3.20;;
23754;SDS011;12057;52.042;6.830;2023-04-03T19:00:26;9.40;;;3.80;;
23754;SDS011;12057;52.042;6.830;2023-04-03T19:05:27;7.72;;;2.60;;
23754;SDS011;12057;52.042;6.830;2023-04-03T19:10:29;6.30;;;2.72;;
23754;SDS011;12057;52.042;6.830;2023-04-03T19:15:29;18.35;;;3.33;;
23754;SDS011;12057;52.042;6.830;2023-04-03T19:20:31;14.10;;;4.43;;
23754;SDS011;12057;52.042;6.830;2023-04-03T19:25:31;17.23;;;4.57;;
23754;SDS011;12057;52.042;6.830;2023-04-03T19:30:32;12.47;;;4.87;;
23754;SDS011;12057;52.042;6.830;2023-04-03T19:35:33;17.13;;;5.00;;
23754;SDS011;12057;52.042;6.830;2023-04-03T19:40:33;6.80;;;3.50;;
23754;SDS011;12057;52.042;6.830;2023-04-03T19:45:36;7.78;;;4.00;;
23754;SDS011;12057;52.042;6.830;2023-04-03T19:50:38;11.80;;;3.95;;
23754;SDS011;12057;52.042;6.830;2023-04-03T19:55:38;10.47;;;4.90;;
23754;SDS011;12057;52.042;6.830;2023-04-03T20:00:40;12.33;;;3.20;;
23754;SDS011;12057;52.042;6.830;2023-04-03T20:10:41;11.03;;;3.10;;
23754;SDS011;12057;52.042;6.830;2023-04-03T20:15:42;7.00;;;2.78;;
23754;SDS011;12057;52.042;6.830;2023-04-03T20:25:51;11.45;;;4.18;;
23754;SDS011;12057;52.042;6.830;2023-04-03T20:30:54;9.38;;;3.60;;
23754;SDS011;12057;52.042;6.830;2023-04-03T20:35:57;17.00;;;3.60;;
23754;SDS011;12057;52.042;6.830;2023-04-03T20:40:58;10.90;;;3.20;;
23754;SDS011;12057;52.042;6.830;2023-04-03T20:45:59;8.30;;;2.90;;
23754;SDS011;12057;52.042;6.830;2023-04-03T20:51:11;10.63;;;3.33;;
23754;SDS011;12057;52.042;6.830;2023-04-03T20:56:14;8.02;;;2.85;;
23754;SDS011;12057;52.042;6.830;2023-04-03T21:23:15;11.40;;;2.72;;
23754;SDS011;12057;52.042;6.830;2023-04-03T21:28:16;10.55;;;3.20;;
23754;SDS011;12057;52.042;6.830;2023-04-03T21:33:21;12.13;;;3.55;;
23754;SDS011;12057;52.042;6.830;2023-04-03T21:38:22;20.75;;;4.72;;
23754;SDS011;12057;52.042;6.830;2023-04-03T21:43:23;20.75;;;4.10;;
23754;SDS011;12057;52.042;6.830;2023-04-03T21:48:24;21.98;;;4.45;;
23754;SDS011;12057;52.042;6.830;2023-04-03T21:53:32;11.15;;;3.72;;
23754;SDS011;12057;52.042;6.830;2023-04-03T21:58:34;14.45;;;3.60;;
23754;SDS011;12057;52.042;6.830;2023-04-03T22:03:35;5.27;;;2.77;;
23754;SDS011;12057;52.042;6.830;2023-04-03T22:08:36;13.55;;;3.70;;
23754;SDS011;12057;52.042;6.830;2023-04-03T22:18:41;9.93;;;3.67;;
23754;SDS011;12057;52.042;6.830;2023-04-03T22:23:45;13.38;;;3.70;;
23754;SDS011;12057;52.042;6.830;2023-04-03T22:28:51;11.10;;;2.97;;
23754;SDS011;12057;52.042;6.830;2023-04-03T22:33:57;9.15;;;3.25;;
23754;SDS011;12057;52.042;6.830;2023-04-03T22:39:14;11.35;;;3.13;;
23754;SDS011;12057;52.042;6.830;2023-04-03T22:44:19;8.63;;;3.30;;
23754;SDS011;12057;52.042;6.830;2023-04-03T22:49:29;8.15;;;3.42;;
23754;SDS011;12057;52.042;6.830;2023-04-03T22:54:46;16.48;;;4.20;;
23754;SDS011;12057;52.042;6.830;2023-04-03T22:59:47;11.13;;;2.55;;
23754;SDS011;12057;52.042;6.830;2023-04-03T23:04:47;11.43;;;2.55;;
23754;SDS011;12057;52.042;6.830;2023-04-03T23:09:48;15.35;;;2.88;;
23754;SDS011;12057;52.042;6.830;2023-04-03T23:14:49;11.13;;;3.35;;
23754;SDS011;12057;52.042;6.830;2023-04-03T23:19:49;5.65;;;2.88;;
23754;SDS011;12057;52.042;6.830;2023-04-03T23:24:50;12.13;;;3.30;;
23754;SDS011;12057;52.042;6.830;2023-04-03T23:29:51;13.40;;;3.35;;
23754;SDS011;12057;52.042;6.830;2023-04-03T23:34:51;6.15;;;2.67;;
23754;SDS011;12057;52.042;6.830;2023-04-03T23:39:52;4.32;;;2.35;;
23754;SDS011;12057;52.042;6.830;2023-04-03T23:44:53;13.70;;;2.58;;
23754;SDS011;12057;52.042;6.830;2023-04-03T23:49:53;10.27;;;2.42;;
23754;SDS011;12057;52.042;6.830;2023-04-03T23:54:54;9.32;;;2.67;;
